Terminal Aerodrome Forecast
Issued by NWS

Home | Current Version | Previous Version | Graphics & Text | Print | Product List | Glossary On
Versions: 1 2 3 4 5 6 7 8 9 10 11 12 13 14 15 16 17 18
000
FTUS43 KMPX 180500
TAFRNH
TAF
KRNH 180529Z 1806/1906 11006KT 4SM -RA BR SCT015 OVC035
     FM180800 13003KT 2SM BR OVC003
     FM181500 21005KT 5SM -SHRA BR OVC012
      TEMPO 1817/1820 2SM +TSRA BKN012CB OVC020
     FM182000 22007KT P6SM -SHRA BKN015 OVC050
     FM190300 25003KT P6SM OVC015=

USA.gov is the U.S. government's official web portal to all federal, state and local government web resources and services.